Time;durP1;ratioP1;P1;durP2;ratioP2;P2;SDS_P1;SDS_P2;PMS_P1;PMS_P2;Temp;Humidity;BMP_temperature;BMP_pressure;BME280_temperature;BME280_humidity;BME280_pressure;Samples;Min_cycle;Max_cycle;Signal;HPM_P1;HPM_P2
2023/09/27 00:03:12;;;;;;;8.32;6.88;;;;;;;15.29;69.54;97140.78;6222795;22;19972;-83
2023/09/27 00:05:46;;;;;;;8.25;7.32;;;;;;;15.26;69.36;97149.06;6302247;22;19999;-81
2023/09/27 00:08:29;;;;;;;7.40;6.22;;;;;;;15.24;69.40;97143.22;6273453;23;20008;-80
2023/09/27 00:55:57;;;;;;;4.18;3.53;;;;;;;14.79;70.67;97130.50;6166634;22;20043;-82
2023/09/27 03:52:53;;;;;;;7.88;5.53;;;;;;;13.90;69.10;97140.81;6261968;23;20024;-81
2023/09/27 05:00:26;;;;;;;21.55;7.15;;;;;;;14.02;67.12;97192.56;6213540;22;20024;-80
2023/09/27 05:03:17;;;;;;;16.33;7.13;;;;;;;13.88;67.17;97188.19;6247813;23;20027;-79
2023/09/27 05:17:02;;;;;;;6.63;5.80;;;;;;;13.74;67.52;97202.19;6246611;23;20358;-80
2023/09/27 05:19:31;;;;;;;9.68;8.38;;;;;;;13.68;68.51;97202.94;6250221;23;20078;-80
2023/09/27 05:22:00;;;;;;;13.77;10.82;;;;;;;13.62;69.09;97207.09;6247278;23;20048;-79
2023/09/27 05:24:27;;;;;;;17.08;12.25;;;;;;;13.59;69.64;97213.53;6244892;23;20370;-80
2023/09/27 05:26:57;;;;;;;14.38;12.13;;;;;;;13.54;70.02;97213.28;6247290;23;20020;-79
2023/09/27 07:20:50;;;;;;;4.97;3.92;;;;;;;17.48;64.94;97228.53;6200123;22;20024;-80
2023/09/27 07:23:20;;;;;;;7.38;4.30;;;;;;;17.71;64.15;97234.13;6277703;22;20024;-80
2023/09/27 07:25:48;;;;;;;6.15;3.60;;;;;;;17.95;63.58;97229.16;6279470;22;20020;-80
2023/09/27 07:28:16;;;;;;;6.85;4.30;;;;;;;18.17;62.84;97234.88;6278080;22;20070;-80
2023/09/27 07:30:45;;;;;;;5.72;4.13;;;;;;;18.40;62.42;97233.47;6276277;22;20027;-80
2023/09/27 07:33:17;;;;;;;5.72;4.20;;;;;;;18.65;61.67;97239.56;6276370;22;20027;-81
2023/09/27 07:35:46;;;;;;;4.38;3.92;;;;;;;18.85;60.98;97236.75;6275881;22;20063;-83
2023/09/27 07:38:14;;;;;;;5.93;4.47;;;;;;;19.05;61.80;97238.38;6277016;22;20027;-81
2023/09/27 07:40:46;;;;;;;4.57;4.00;;;;;;;19.25;60.36;97238.16;6277970;22;20090;-81
2023/09/27 07:43:14;;;;;;;;;;;;;;;19.47;61.04;97246.44;6279038;22;20081;-82
2023/09/27 07:45:44;;;;;;;4.35;3.72;;;;;;;19.67;59.64;97239.06;6278803;22;19922;-81
2023/09/27 07:48:14;;;;;;;9.95;4.57;;;;;;;19.87;59.41;97245.94;6277596;22;20081;-81
2023/09/27 07:50:42;;;;;;;5.03;4.00;;;;;;;20.04;58.49;97241.63;6279025;22;20069;-81
2023/09/27 07:53:11;;;;;;;6.72;4.38;;;;;;;20.26;57.66;97241.91;6278665;22;20023;-81
2023/09/27 07:55:46;;;;;;;13.07;5.53;;;;;;;20.48;57.05;97242.16;6278511;22;20126;-81
2023/09/27 07:58:14;;;;;;;7.90;4.85;;;;;;;20.69;56.67;97242.69;6278580;22;20071;-82
2023/09/27 08:00:43;;;;;;;9.48;6.53;;;;;;;20.92;55.67;97241.84;6278704;22;20031;-81
2023/09/27 08:03:11;;;;;;;8.93;5.75;;;;;;;21.13;55.79;97243.09;6279735;22;20023;-82
2023/09/27 08:05:43;;;;;;;11.35;5.75;;;;;;;21.30;54.46;97244.00;6279446;22;20098;-82
2023/09/27 08:08:12;;;;;;;8.95;5.65;;;;;;;21.54;53.83;97249.28;6280115;22;20023;-84
2023/09/27 08:10:43;;;;;;;6.82;5.43;;;;;;;21.88;52.95;97239.53;6280167;22;20015;-82
2023/09/27 08:13:12;;;;;;;10.93;6.65;;;;;;;22.51;52.10;97248.34;6280065;22;20024;-82
2023/09/27 08:15:41;;;;;;;9.52;6.22;;;;;;;23.10;50.14;97249.75;6279335;22;20099;-82
2023/09/27 08:18:08;;;;;;;9.68;5.97;;;;;;;23.22;49.44;97242.44;6279490;22;20027;-82
2023/09/27 08:20:37;;;;;;;7.63;5.28;;;;;;;23.26;49.52;97240.88;6279503;22;20023;-82
2023/09/27 08:23:06;;;;;;;7.15;6.00;;;;;;;23.60;49.73;97238.91;6279830;22;20019;-82
2023/09/27 08:25:33;;;;;;;7.53;4.93;;;;;;;24.38;47.45;97243.94;6279006;22;20026;-83
2023/09/27 08:28:02;;;;;;;8.55;5.82;;;;;;;24.53;47.17;97237.94;6279978;22;20024;-82
2023/09/27 08:30:29;;;;;;;7.47;4.93;;;;;;;24.26;47.26;97241.44;6278639;22;20019;-83
2023/09/27 08:32:57;;;;;;;6.03;4.13;;;;;;;24.27;47.53;97237.72;6280425;22;20077;-82
2023/09/27 08:35:25;;;;;;;9.52;4.80;;;;;;;25.02;45.97;97227.03;6281759;22;20057;-82
2023/09/27 08:37:52;;;;;;;4.65;4.10;;;;;;;25.54;44.58;97229.94;6282807;22;20023;-82
2023/09/27 08:40:21;;;;;;;7.43;4.72;;;;;;;25.34;44.82;97225.34;6278706;22;20027;-83
2023/09/27 08:42:54;;;;;;;7.35;4.80;;;;;;;25.07;45.18;97215.59;6279422;22;20461;-82
2023/09/27 08:45:23;;;;;;;6.07;5.05;;;;;;;24.88;45.23;97215.22;6279657;22;20023;-83
2023/09/27 08:47:52;;;;;;;5.78;3.80;;;;;;;24.79;45.65;97211.44;6279545;22;20507;-82
2023/09/27 08:50:21;;;;;;;5.32;3.97;;;;;;;24.79;45.29;97217.56;6278945;22;20515;-82
2023/09/27 08:52:50;;;;;;;4.90;3.60;;;;;;;24.84;45.74;97206.13;6278485;22;20031;-82
2023/09/27 08:55:19;;;;;;;4.10;3.65;;;;;;;24.88;45.36;97213.38;6278902;22;20388;-82
2023/09/27 08:57:49;;;;;;;3.78;2.95;;;;;;;24.94;45.04;97205.38;6278470;22;20330;-82
2023/09/27 09:00:19;;;;;;;4.05;3.25;;;;;;;24.98;44.90;97201.94;6279129;22;20461;-82
2023/09/27 09:02:52;;;;;;;4.15;2.78;;;;;;;25.05;44.91;97196.34;6279042;22;20046;-82
2023/09/27 09:05:22;;;;;;;4.57;3.00;;;;;;;25.17;45.04;97185.47;6279158;22;20023;-82
2023/09/27 09:07:50;;;;;;;7.85;4.00;;;;;;;25.26;44.24;97182.06;6278284;22;20020;-82
2023/09/27 09:10:18;;;;;;;5.65;3.03;;;;;;;25.34;45.54;97183.41;6277209;22;20513;-82
2023/09/27 09:12:48;;;;;;;4.95;3.47;;;;;;;25.44;45.27;97188.78;6277350;22;20027;-82
2023/09/27 09:15:28;;;;;;;7.28;3.50;;;;;;;25.55;44.83;97191.50;6277134;22;20023;-82
2023/09/27 09:17:58;;;;;;;5.15;3.20;;;;;;;25.69;44.75;97185.38;6277189;22;20019;-82
2023/09/27 09:20:32;;;;;;;3.85;3.30;;;;;;;25.86;44.19;97187.78;6277697;22;20137;-82
2023/09/27 09:23:03;;;;;;;6.10;2.83;;;;;;;26.05;43.92;97195.34;6277732;22;20141;-82
2023/09/27 09:25:31;;;;;;;6.70;3.77;;;;;;;26.19;43.48;97180.34;6285271;22;20011;-85
2023/09/27 09:28:07;;;;;;;4.20;3.00;;;;;;;26.31;42.82;97178.22;6304399;22;20267;-85
2023/09/27 09:30:36;;;;;;;4.72;3.78;;;;;;;26.45;44.75;97185.69;6304278;22;20072;-85
2023/09/27 09:33:09;;;;;;;5.80;3.72;;;;;;;26.52;43.40;97179.00;6282361;22;20027;-83
2023/09/27 09:35:37;;;;;;;5.60;4.45;;;;;;;26.52;42.97;97165.63;6281328;22;20031;-81
2023/09/27 09:38:05;;;;;;;4.38;3.83;;;;;;;26.51;42.69;97166.69;6282125;22;20090;-83
2023/09/27 09:40:34;;;;;;;5.15;3.63;;;;;;;26.59;43.63;97160.03;6279317;22;20055;-83
2023/09/27 09:43:03;;;;;;;6.35;4.80;;;;;;;26.74;44.05;97166.38;6279067;22;20095;-82
2023/09/27 09:45:32;;;;;;;6.75;4.53;;;;;;;26.86;43.74;97161.53;6279619;22;20104;-83
2023/09/27 09:47:59;;;;;;;5.43;3.67;;;;;;;26.97;41.71;97147.03;6278615;22;20020;-82
2023/09/27 09:50:29;;;;;;;5.13;3.53;;;;;;;27.09;43.36;97150.22;6278181;22;20510;-82
2023/09/27 09:52:58;;;;;;;7.63;3.30;;;;;;;27.21;43.07;97152.59;6278946;22;20023;-82
2023/09/27 09:55:29;;;;;;;4.57;2.60;;;;;;;27.36;43.07;97135.66;6281169;22;20043;-82
2023/09/27 09:58:29;;;;;;;4.43;3.47;;;;;;;27.46;41.01;97142.81;6278591;22;20020;-82
2023/09/27 10:01:02;;;;;;;7.00;3.80;;;;;;;27.47;41.20;97139.06;6279435;22;20562;-82
2023/09/27 10:03:32;;;;;;;5.07;3.70;;;;;;;27.52;40.02;97147.84;6280072;22;20356;-82
2023/09/27 10:06:02;;;;;;;18.75;13.82;;;;;;;27.61;39.72;97125.84;6279867;22;20019;-82
2023/09/27 10:08:34;;;;;;;12.57;8.85;;;;;;;27.64;39.05;97130.63;6280064;22;20054;-82
2023/09/27 10:11:05;;;;;;;6.03;4.60;;;;;;;27.67;39.51;97127.41;6278617;22;20020;-82
2023/09/27 10:13:35;;;;;;;4.05;3.17;;;;;;;27.76;38.75;97119.56;6280313;22;20043;-83
2023/09/27 10:16:04;;;;;;;3.63;2.90;;;;;;;27.81;37.76;97114.94;6280618;22;20051;-82
2023/09/27 10:18:34;;;;;;;5.80;1.92;;;;;;;27.85;38.03;97116.03;6280018;22;20016;-81
2023/09/27 10:21:06;;;;;;;3.08;1.90;;;;;;;27.89;37.97;97114.38;6279651;22;20026;-82
2023/09/27 10:23:58;;;;;;;2.22;2.03;;;;;;;27.88;38.22;97107.44;6280112;22;20027;-82
2023/09/27 10:26:36;;;;;;;1.90;1.80;;;;;;;27.91;38.00;97095.34;6279964;22;20023;-81
2023/09/27 10:29:12;;;;;;;4.65;2.42;;;;;;;27.98;38.03;97097.69;6280040;22;20024;-82
2023/09/27 10:32:19;;;;;;;1.63;1.52;;;;;;;28.06;37.80;97097.09;6280299;22;20055;-82
2023/09/27 10:34:51;;;;;;;2.00;1.77;;;;;;;28.13;37.52;97092.19;6279510;22;20051;-82
2023/09/27 10:37:59;;;;;;;3.08;1.50;;;;;;;28.21;38.06;97082.75;6279582;22;20053;-82
2023/09/27 10:40:26;;;;;;;2.40;2.00;;;;;;;28.25;36.91;97073.84;6262022;22;20099;-81
2023/09/27 10:42:55;;;;;;;2.95;1.80;;;;;;;28.29;37.63;97069.47;6280341;22;20089;-82
2023/09/27 10:45:23;;;;;;;4.85;2.22;;;;;;;28.39;36.77;97068.59;6279434;22;20207;-82
2023/09/27 10:47:53;;;;;;;1.98;1.88;;;;;;;28.47;36.54;97062.59;6279480;22;20353;-82
2023/09/27 10:50:29;;;;;;;2.20;1.90;;;;;;;28.50;36.46;97058.56;6279851;22;20094;-82
2023/09/27 10:53:00;;;;;;;1.48;1.38;;;;;;;28.55;37.06;97055.81;6279812;22;20095;-81
2023/09/27 10:55:37;;;;;;;4.07;1.70;;;;;;;28.64;38.41;97051.41;6279577;22;20069;-82
2023/09/27 10:58:05;;;;;;;2.53;1.65;;;;;;;28.75;37.38;97050.22;6279412;22;20020;-81
2023/09/27 11:00:33;;;;;;;4.05;1.33;;;;;;;28.84;37.16;97038.81;6278861;22;20035;-81
2023/09/27 11:03:00;;;;;;;2.05;1.75;;;;;;;28.91;36.06;97034.69;6279105;22;20069;-81
2023/09/27 11:05:30;;;;;;;3.63;2.20;;;;;;;28.95;35.87;97042.97;6278524;22;20024;-82
2023/09/27 11:07:58;;;;;;;2.13;1.50;;;;;;;28.98;35.88;97037.03;6278898;22;20020;-81
2023/09/27 11:10:33;;;;;;;2.95;1.50;;;;;;;29.03;36.48;97023.50;6278980;22;20077;-82
2023/09/27 11:13:09;;;;;;;1.85;1.52;;;;;;;29.06;35.67;97025.63;6279100;22;20024;-81
2023/09/27 11:15:37;;;;;;;1.73;1.50;;;;;;;29.13;35.30;97018.03;6281968;22;20148;-81
2023/09/27 11:18:05;;;;;;;2.90;1.50;;;;;;;29.33;34.54;97021.50;6278696;22;20019;-82
2023/09/27 11:20:34;;;;;;;1.58;1.48;;;;;;;29.58;33.67;97012.22;6278050;22;20019;-81
2023/09/27 11:23:03;;;;;;;1.92;1.40;;;;;;;29.73;33.50;97017.38;6277266;22;20101;-82
2023/09/27 11:25:32;;;;;;;1.48;1.00;;;;;;;29.74;33.02;97010.13;6284117;22;20042;-82
2023/09/27 11:28:00;;;;;;;2.13;1.08;;;;;;;29.86;32.68;97017.69;6287563;22;20019;-82
2023/09/27 11:30:30;;;;;;;1.45;1.20;;;;;;;29.99;31.95;97006.94;6289587;22;20024;-82
2023/09/27 11:32:58;;;;;;;2.08;1.23;;;;;;;30.14;32.39;97005.09;6281488;22;20074;-82
2023/09/27 11:35:27;;;;;;;1.98;1.40;;;;;;;30.21;31.88;96991.22;6280496;22;20043;-82
2023/09/27 11:38:14;;;;;;;1.30;1.20;;;;;;;30.38;32.73;96997.63;6280091;22;20105;-82
2023/09/27 11:40:43;;;;;;;1.92;1.38;;;;;;;30.50;31.77;96986.38;6289407;22;20019;-84
2023/09/27 11:43:12;;;;;;;2.60;1.20;;;;;;;30.53;31.57;96987.66;6304808;22;20008;-84
2023/09/27 11:45:44;;;;;;;2.08;1.25;;;;;;;30.68;31.09;96984.63;6294165;22;20020;-82
2023/09/27 11:48:12;;;;;;;3.75;1.48;;;;;;;30.74;30.66;96982.59;6280866;22;20110;-82
2023/09/27 11:50:40;;;;;;;1.85;1.10;;;;;;;30.68;30.82;96976.56;6280040;22;20015;-83
2023/09/27 11:53:07;;;;;;;2.33;1.23;;;;;;;30.71;31.23;96984.00;6280354;22;20066;-82
2023/09/27 11:55:37;;;;;;;1.77;1.10;;;;;;;30.84;30.44;96978.91;6279977;22;20059;-82
2023/09/27 11:58:04;;;;;;;1.17;0.85;;;;;;;30.82;29.43;96973.03;6280258;22;20089;-83
2023/09/27 12:00:32;;;;;;;1.30;1.17;;;;;;;30.68;29.77;96973.88;6279956;22;20077;-82
2023/09/27 12:03:00;;;;;;;1.40;1.30;;;;;;;30.52;30.61;96969.88;6279686;22;20073;-82
2023/09/27 12:05:28;;;;;;;0.90;0.90;;;;;;;30.42;30.60;96975.50;6279759;22;20023;-83
2023/09/27 12:07:56;;;;;;;2.65;0.90;;;;;;;30.36;30.26;96972.13;6279800;22;20042;-83
2023/09/27 12:10:24;;;;;;;3.65;1.17;;;;;;;30.29;29.34;96982.50;6279948;22;20039;-82
2023/09/27 12:12:54;;;;;;;2.30;0.98;;;;;;;30.08;29.46;96982.84;6280235;22;20030;-84
2023/09/27 12:15:22;;;;;;;1.33;1.17;;;;;;;29.89;30.27;96980.25;6279215;22;20023;-83
2023/09/27 12:17:50;;;;;;;1.23;1.20;;;;;;;29.79;31.72;96980.44;6279061;22;20023;-83
2023/09/27 12:20:18;;;;;;;2.30;1.52;;;;;;;29.66;31.65;96979.28;6278754;22;20055;-82
2023/09/27 12:23:05;;;;;;;2.60;1.27;;;;;;;29.49;31.58;96971.78;6278658;22;20020;-82
2023/09/27 12:25:33;;;;;;;1.70;1.40;;;;;;;29.25;31.96;96969.22;6278438;22;20047;-82
2023/09/27 12:28:03;;;;;;;1.55;1.27;;;;;;;29.01;32.40;96977.34;6278154;22;20073;-82
2023/09/27 12:30:31;;;;;;;2.92;1.55;;;;;;;28.78;32.48;96967.50;6277642;22;20015;-82
2023/09/27 12:32:59;;;;;;;2.63;1.63;;;;;;;28.64;33.37;96967.41;6278206;22;20375;-82
2023/09/27 12:35:27;;;;;;;1.70;1.55;;;;;;;28.58;34.03;96964.03;6278181;22;20027;-82
2023/09/27 12:37:55;;;;;;;6.35;1.85;;;;;;;28.51;33.75;96963.56;6278617;22;20016;-83
2023/09/27 12:40:24;;;;;;;1.85;1.73;;;;;;;28.43;34.29;96961.50;6278796;22;20051;-83
2023/09/27 12:42:51;;;;;;;2.35;1.70;;;;;;;28.33;34.03;96960.53;6278836;22;20019;-82
2023/09/27 12:45:20;;;;;;;4.20;1.60;;;;;;;28.23;34.30;96952.63;6277891;22;20023;-82
2023/09/27 12:47:48;;;;;;;2.95;1.60;;;;;;;28.11;34.57;96961.06;6278435;22;20105;-82
2023/09/27 12:50:20;;;;;;;1.83;1.63;;;;;;;28.01;34.72;96961.19;6277363;22;20020;-82
2023/09/27 12:52:47;;;;;;;6.93;2.28;;;;;;;27.89;34.94;96947.38;6277730;22;20023;-82
2023/09/27 12:55:15;;;;;;;5.00;2.22;;;;;;;27.84;35.77;96939.38;6278117;22;20050;-83
2023/09/27 12:57:43;;;;;;;3.60;1.40;;;;;;;27.83;35.58;96943.91;6278283;22;20065;-82
2023/09/27 13:00:12;;;;;;;2.42;1.60;;;;;;;27.81;34.92;96943.38;6278063;22;20020;-82
2023/09/27 13:02:41;;;;;;;3.95;1.35;;;;;;;27.74;35.07;96941.06;6278037;22;20103;-82
2023/09/27 13:05:09;;;;;;;1.50;1.40;;;;;;;27.72;35.76;96947.78;6277950;22;20024;-82
2023/09/27 13:07:37;;;;;;;2.67;1.40;;;;;;;27.73;35.92;96939.47;6277506;22;20098;-82
2023/09/27 13:10:06;;;;;;;3.15;1.40;;;;;;;27.80;36.13;96938.34;6276940;22;20012;-82
2023/09/27 13:12:34;;;;;;;5.68;1.85;;;;;;;27.84;35.58;96940.16;6277994;22;20357;-82
2023/09/27 13:15:02;;;;;;;2.45;1.70;;;;;;;27.81;35.20;96931.88;6277744;22;20024;-82
2023/09/27 13:17:31;;;;;;;2.72;1.60;;;;;;;27.77;35.13;96934.34;6278537;22;20081;-82
2023/09/27 13:20:00;;;;;;;2.65;1.67;;;;;;;27.71;35.54;96935.47;6278115;22;20046;-80
2023/09/27 13:22:28;;;;;;;1.70;1.30;;;;;;;27.73;36.09;96927.94;6277778;22;20020;-80
2023/09/27 13:24:55;;;;;;;4.40;1.40;;;;;;;27.71;35.55;96924.75;6284073;22;20050;-80
2023/09/27 13:27:23;;;;;;;3.20;1.65;;;;;;;27.67;35.65;96923.72;6276040;22;20023;-80
2023/09/27 13:29:51;;;;;;;3.60;1.80;;;;;;;27.65;36.22;96921.31;6275636;22;20485;-80
2023/09/27 13:32:19;;;;;;;3.20;1.23;;;;;;;27.63;35.08;96923.47;6276223;22;20098;-81
2023/09/27 13:34:46;;;;;;;2.72;1.65;;;;;;;27.57;34.85;96916.56;6276018;22;20098;-80
2023/09/27 13:37:17;;;;;;;3.28;1.63;;;;;;;27.53;34.73;96912.88;6275934;22;20019;-81
2023/09/27 13:39:45;;;;;;;3.90;1.67;;;;;;;27.47;35.14;96909.44;6275674;22;20044;-81
2023/09/27 13:42:13;;;;;;;2.70;1.33;;;;;;;27.38;35.23;96900.44;6276120;22;20023;-80
2023/09/27 13:44:40;;;;;;;1.73;1.40;;;;;;;27.33;34.96;96897.78;6276320;22;20024;-81
2023/09/27 13:47:08;;;;;;;2.63;1.40;;;;;;;27.25;35.04;96895.75;6276823;22;20019;-80
2023/09/27 13:49:36;;;;;;;2.60;1.45;;;;;;;27.18;35.02;96895.22;6278073;22;20027;-80
2023/09/27 13:52:04;;;;;;;4.13;1.35;;;;;;;27.13;35.43;96894.22;6278978;22;20330;-80
2023/09/27 13:54:34;;;;;;;2.83;1.67;;;;;;;27.13;35.86;96891.53;6278026;22;20400;-80
2023/09/27 13:57:01;;;;;;;2.17;1.90;;;;;;;27.17;35.45;96888.28;6280524;22;20023;-81
2023/09/27 13:59:29;;;;;;;2.28;1.33;;;;;;;27.19;36.10;96886.13;6281749;22;20072;-81
2023/09/27 14:01:57;;;;;;;2.60;1.58;;;;;;;27.19;35.86;96878.09;6281816;22;20020;-80
2023/09/27 14:04:25;;;;;;;1.67;1.20;;;;;;;27.17;35.91;96883.72;6281583;22;20432;-80
2023/09/27 14:06:54;;;;;;;2.75;1.40;;;;;;;27.13;35.68;96880.81;6298089;22;20027;-80
2023/09/27 14:09:21;;;;;;;2.67;1.30;;;;;;;27.13;35.70;96877.31;6297508;22;20027;-80
2023/09/27 14:11:51;;;;;;;2.30;1.42;;;;;;;27.11;35.67;96880.31;6290137;22;20020;-80
2023/09/27 14:14:18;;;;;;;2.60;1.52;;;;;;;27.08;35.44;96877.38;6281159;22;20054;-80
2023/09/27 14:16:47;;;;;;;2.17;1.30;;;;;;;27.06;36.24;96883.00;6281569;22;20073;-80
2023/09/27 14:19:16;;;;;;;1.58;1.08;;;;;;;27.01;35.80;96879.59;6281174;22;20038;-81
2023/09/27 14:21:44;;;;;;;2.45;1.17;;;;;;;26.97;35.84;96873.97;6282310;22;20376;-80
2023/09/27 14:24:12;;;;;;;1.50;1.40;;;;;;;26.92;36.17;96871.34;6281092;22;20073;-80
2023/09/27 14:26:42;;;;;;;1.42;1.13;;;;;;;26.88;36.74;96875.66;6280694;22;20019;-80
2023/09/27 14:29:11;;;;;;;2.15;1.30;;;;;;;26.83;35.97;96873.00;6280825;22;20468;-80
2023/09/27 14:31:57;;;;;;;5.15;1.52;;;;;;;26.73;36.04;96867.75;6280762;22;20062;-80
2023/09/27 14:34:24;;;;;;;2.58;1.23;;;;;;;26.63;36.32;96861.41;6278834;22;20031;-80
2023/09/27 14:36:52;;;;;;;1.67;1.25;;;;;;;26.58;37.25;96860.63;6280029;22;20058;-80
2023/09/27 14:39:19;;;;;;;4.97;1.38;;;;;;;26.55;37.46;96851.25;6278820;22;20034;-80
2023/09/27 14:41:47;;;;;;;2.53;1.50;;;;;;;26.49;37.25;96853.16;6279059;22;20024;-80
2023/09/27 14:44:16;;;;;;;1.85;1.42;;;;;;;26.42;37.12;96846.53;6279276;22;20338;-82
2023/09/27 14:46:44;;;;;;;1.40;1.30;;;;;;;26.30;36.78;96834.31;6283464;22;20039;-78
2023/09/27 14:49:15;;;;;;;3.72;1.40;;;;;;;26.18;36.93;96838.41;6291882;22;20024;-79
2023/09/27 14:51:42;;;;;;;2.85;1.40;;;;;;;26.05;37.42;96837.91;6287333;22;20346;-80
2023/09/27 14:54:10;;;;;;;1.70;1.48;;;;;;;25.95;37.18;96831.81;6279064;22;20020;-80
2023/09/27 14:56:38;;;;;;;1.58;1.42;;;;;;;25.82;37.74;96839.34;6290066;22;20043;-80
2023/09/27 14:59:05;;;;;;;3.88;1.92;;;;;;;25.76;38.15;96835.09;6290242;22;20023;-79
2023/09/27 15:01:34;;;;;;;1.40;1.30;;;;;;;25.71;38.13;96832.41;6279219;22;20012;-80
2023/09/27 15:04:02;;;;;;;1.92;1.58;;;;;;;25.67;37.93;96831.34;6278124;22;20023;-80
2023/09/27 15:06:29;;;;;;;2.30;1.60;;;;;;;25.58;37.91;96830.34;6280097;22;20481;-80
2023/09/27 15:08:57;;;;;;;1.98;1.35;;;;;;;25.50;38.02;96834.38;6280416;22;20024;-80
2023/09/27 15:11:25;;;;;;;1.63;1.52;;;;;;;25.45;38.85;96843.22;6280413;22;20065;-80
2023/09/27 15:13:56;;;;;;;1.73;1.63;;;;;;;25.39;38.69;96833.59;6279067;22;20121;-80
2023/09/27 15:16:23;;;;;;;1.42;1.20;;;;;;;25.32;38.27;96835.75;6280075;22;20027;-80
2023/09/27 15:18:53;;;;;;;2.63;1.50;;;;;;;25.24;38.04;96833.63;6279659;22;20469;-80
2023/09/27 15:21:21;;;;;;;1.73;1.40;;;;;;;25.17;38.18;96827.75;6279100;22;20070;-80
2023/09/27 15:23:48;;;;;;;6.50;1.52;;;;;;;25.09;37.71;96818.41;6279404;22;20020;-80
2023/09/27 15:26:16;;;;;;;1.60;1.27;;;;;;;25.02;37.45;96826.69;6279906;22;20050;-79
2023/09/27 15:28:43;;;;;;;3.65;1.30;;;;;;;24.98;37.70;96816.84;6280152;22;20054;-80
2023/09/27 15:31:11;;;;;;;1.40;1.10;;;;;;;24.93;37.79;96822.97;6279128;22;20016;-80
2023/09/27 15:33:39;;;;;;;1.27;1.17;;;;;;;24.87;38.01;96819.50;6279081;22;20150;-80
2023/09/27 15:36:11;;;;;;;3.28;1.40;;;;;;;24.83;38.51;96814.97;6283162;22;20019;-79
2023/09/27 15:38:43;;;;;;;1.17;1.00;;;;;;;24.79;39.00;96816.56;6276789;22;20023;-80
2023/09/27 15:41:15;;;;;;;2.55;1.10;;;;;;;24.76;39.20;96817.13;6276156;22;20470;-80
2023/09/27 15:43:43;;;;;;;2.90;1.40;;;;;;;24.72;39.37;96821.38;6276620;22;20023;-80
2023/09/27 15:46:13;;;;;;;2.60;1.30;;;;;;;24.66;39.60;96816.06;6277508;22;20074;-80
2023/09/27 15:48:43;;;;;;;1.50;1.40;;;;;;;24.63;39.84;96805.09;6277559;22;20020;-80
2023/09/27 15:51:13;;;;;;;3.13;1.80;;;;;;;24.61;39.63;96809.91;6277124;22;20019;-79
2023/09/27 15:53:41;;;;;;;3.13;1.10;;;;;;;24.58;39.42;96805.91;6277033;22;20023;-80
2023/09/27 15:56:10;;;;;;;1.98;1.33;;;;;;;24.55;39.88;96806.44;6277508;22;20039;-80
2023/09/27 15:58:38;;;;;;;1.30;1.20;;;;;;;24.55;39.64;96808.31;6277777;22;20493;-82
2023/09/27 16:01:07;;;;;;;2.42;1.33;;;;;;;24.52;39.59;96809.63;6277386;22;20016;-79
2023/09/27 16:03:35;;;;;;;3.85;1.77;;;;;;;24.49;39.21;96798.69;6277010;22;20024;-79
2023/09/27 16:06:03;;;;;;;6.53;1.23;;;;;;;24.46;39.44;96797.34;6277192;22;20079;-79
2023/09/27 16:08:33;;;;;;;3.58;1.30;;;;;;;24.43;39.77;96803.22;6276802;22;20031;-78
2023/09/27 16:11:00;;;;;;;1.65;1.40;;;;;;;24.39;40.77;96797.59;6277325;22;20069;-80
2023/09/27 16:13:28;;;;;;;2.03;1.55;;;;;;;24.34;41.57;96794.16;6277432;22;20098;-80
2023/09/27 16:15:56;;;;;;;4.97;1.90;;;;;;;24.29;41.88;96792.25;6277260;22;20027;-79
2023/09/27 16:18:23;;;;;;;2.78;1.80;;;;;;;24.24;42.71;96795.72;6276861;22;20020;-79
2023/09/27 16:20:51;;;;;;;4.47;1.70;;;;;;;24.18;43.13;96794.13;6277162;22;20050;-79
2023/09/27 16:23:18;;;;;;;1.70;1.60;;;;;;;24.14;43.65;96797.56;6277049;22;20019;-79
2023/09/27 16:25:48;;;;;;;5.43;2.00;;;;;;;24.09;44.34;96797.56;6277961;22;20024;-79
2023/09/27 16:28:16;;;;;;;3.38;2.05;;;;;;;24.05;44.36;96791.94;6277115;22;20016;-79
2023/09/27 16:30:44;;;;;;;2.65;2.10;;;;;;;24.01;44.98;96796.22;6277538;22;20556;-80
2023/09/27 16:33:12;;;;;;;4.15;2.55;;;;;;;23.96;45.18;96791.66;6277114;22;20019;-79
2023/09/27 16:35:40;;;;;;;5.88;2.55;;;;;;;23.90;45.63;96795.38;6277433;22;20020;-79
2023/09/27 16:38:09;;;;;;;5.53;3.33;;;;;;;23.85;46.12;96803.34;6277407;22;20020;-79
2023/09/27 16:40:37;;;;;;;5.13;3.38;;;;;;;23.78;46.29;96798.25;6280941;22;20026;-79
2023/09/27 16:43:06;;;;;;;4.72;3.03;;;;;;;23.69;46.46;96797.16;6278586;22;20027;-79
2023/09/27 16:45:35;;;;;;;6.63;3.35;;;;;;;23.62;46.61;96801.91;6278734;22;20065;-79
2023/09/27 16:48:02;;;;;;;4.75;3.15;;;;;;;23.57;47.34;96797.38;6278124;22;20401;-79
2023/09/27 16:50:30;;;;;;;4.95;3.35;;;;;;;23.48;47.62;96804.22;6278562;22;20031;-79
2023/09/27 16:52:58;;;;;;;4.07;3.00;;;;;;;23.40;47.60;96805.53;6278045;22;20069;-79
2023/09/27 16:55:25;;;;;;;5.07;2.90;;;;;;;23.33;48.16;96806.81;6277933;22;20020;-80
2023/09/27 16:57:53;;;;;;;6.25;3.70;;;;;;;23.24;48.43;96817.97;6278432;22;20022;-80
2023/09/27 17:00:22;;;;;;;4.63;2.95;;;;;;;23.18;48.97;96807.56;6278185;22;20493;-80
2023/09/27 17:02:50;;;;;;;8.68;3.60;;;;;;;23.12;48.99;96813.91;6277052;22;20020;-79
2023/09/27 17:05:18;;;;;;;5.78;3.63;;;;;;;23.03;49.54;96810.91;6278168;22;20016;-79
2023/09/27 17:07:46;;;;;;;4.22;3.70;;;;;;;22.96;49.82;96816.44;6278256;22;20055;-79
2023/09/27 17:10:14;;;;;;;4.47;3.42;;;;;;;22.92;49.94;96812.69;6276912;22;20361;-79
2023/09/27 17:12:42;;;;;;;4.70;3.28;;;;;;;22.83;50.08;96816.88;6273812;22;20016;-79
2023/09/27 17:15:10;;;;;;;6.35;4.05;;;;;;;22.78;50.28;96816.81;6275125;22;20020;-77
2023/09/27 17:17:40;;;;;;;8.07;4.03;;;;;;;22.71;50.67;96816.25;6275551;22;20477;-80
2023/09/27 17:20:09;;;;;;;5.68;4.13;;;;;;;22.66;50.78;96818.88;6275640;22;20353;-80
2023/09/27 17:22:37;;;;;;;5.32;4.00;;;;;;;22.63;50.69;96818.31;6277987;22;20326;-79
2023/09/27 17:25:07;;;;;;;7.28;3.70;;;;;;;22.57;51.14;96826.50;6277720;22;20404;-80
2023/09/27 17:27:35;;;;;;;6.78;4.18;;;;;;;22.45;51.39;96831.97;6277853;22;20027;-80
2023/09/27 17:30:03;;;;;;;8.52;4.15;;;;;;;22.36;51.22;96825.50;6278111;22;20027;-81
2023/09/27 17:32:31;;;;;;;4.95;3.80;;;;;;;22.30;51.57;96831.81;6278633;22;20019;-80
2023/09/27 17:35:00;;;;;;;7.57;4.63;;;;;;;22.20;52.04;96827.19;6278744;22;20074;-80
2023/09/27 17:37:28;;;;;;;8.70;4.55;;;;;;;22.11;52.48;96829.47;6278137;22;20027;-80
2023/09/27 17:39:56;;;;;;;11.45;4.65;;;;;;;22.02;52.64;96833.66;6277867;22;20338;-80
2023/09/27 17:42:23;;;;;;;7.00;4.10;;;;;;;21.96;52.87;96834.63;6277903;22;20024;-80
2023/09/27 17:44:51;;;;;;;13.45;4.07;;;;;;;21.87;53.10;96838.78;6279640;22;20016;-80
2023/09/27 17:47:18;;;;;;;8.02;4.00;;;;;;;21.75;53.49;96841.53;6285766;22;20077;-79
2023/09/27 17:49:46;;;;;;;8.20;4.18;;;;;;;21.62;54.03;96837.41;6281025;22;20016;-80
2023/09/27 17:52:15;;;;;;;7.13;4.13;;;;;;;21.50;54.37;96842.03;6280598;22;20026;-80
2023/09/27 17:54:43;;;;;;;6.13;4.25;;;;;;;21.38;54.62;96834.13;6289126;22;20077;-80
2023/09/27 17:57:10;;;;;;;8.20;4.50;;;;;;;21.26;54.96;96834.25;6290101;22;20030;-79
2023/09/27 17:59:39;;;;;;;4.57;3.88;;;;;;;21.11;55.52;96837.50;6285827;22;20024;-77
2023/09/27 18:02:06;;;;;;;5.22;4.38;;;;;;;21.04;56.16;96841.38;6282054;22;20391;-82
2023/09/27 18:04:34;;;;;;;7.57;4.00;;;;;;;20.91;56.68;96843.28;6279139;22;20053;-83
2023/09/27 18:07:02;;;;;;;8.77;4.90;;;;;;;20.77;57.06;96842.00;6278480;22;20028;-77
2023/09/27 18:09:34;;;;;;;5.47;3.75;;;;;;;20.66;57.79;96842.88;6278451;22;20019;-78
2023/09/27 18:12:02;;;;;;;7.10;4.70;;;;;;;20.54;57.71;96849.03;6279824;22;20396;-77
2023/09/27 18:14:30;;;;;;;7.07;4.40;;;;;;;20.44;58.08;96848.03;6279214;22;20020;-77
2023/09/27 18:16:58;;;;;;;8.38;4.93;;;;;;;20.32;58.23;96856.06;6278175;22;20073;-77
2023/09/27 18:19:25;;;;;;;6.97;4.35;;;;;;;20.19;58.61;96862.44;6279121;22;20091;-78
2023/09/27 18:21:53;;;;;;;5.80;4.60;;;;;;;20.07;58.99;96866.97;6281288;22;20047;-77
2023/09/27 18:24:21;;;;;;;7.32;4.90;;;;;;;19.96;59.31;96865.97;6278544;22;20020;-78
2023/09/27 18:26:50;;;;;;;6.97;4.78;;;;;;;19.88;59.84;96861.06;6279338;22;20023;-77
2023/09/27 18:29:17;;;;;;;5.13;4.60;;;;;;;19.80;59.96;96861.41;6279556;22;20027;-78
2023/09/27 18:31:45;;;;;;;5.30;4.80;;;;;;;19.73;60.31;96865.00;6279975;22;20019;-79
2023/09/27 18:34:13;;;;;;;7.05;5.20;;;;;;;19.67;60.35;96857.94;6279666;22;20077;-78